الصفحة الرئيسية
METAR-TAF:

METAR-TAF

مطار :

Beaver Creek, يوكون, كندا

دائرة عرض: 62-25N, خط طول: 140-52W, ارتفاع: 649 متر

مراقبة الطقس الحالي

تاريخ ووقت الإصدار 2ساعات و 37 دقيقة قبل الساعة 22:00UTC
ريح 16 عقدة من الشرق, الاتجاه يتراوح بين الشرق و الجنوب/الجنوب الشرقي
درجة الحرارة 21°درجة مئوية
الرطوبة 30%
ضغط 1004 hPa
الرؤية: 40.2 كم
غيوم متفرقة على ارتفاع 11000 قدم
ملبد بالغيوم على ارتفاع 19000 قدم

METAR: CYXQ 132200Z 09016KT 080V160 25SM SCT110 OVC190 21/03 A2966 RMK AC3AC5 /LAST STFD OBS/NXT 141600Z/ SLP055 DENSITY ALT 3700FT

زمن: 17:37 (00:37 UTC)


TAF: مفقودة

أرصاد الطقس والتوقعات من أكثر من 4000 مطار (تقارير الطقس للمطار METAR والتنبؤ بالطقس بالمطارTAF).

المحطات المتاحة هي النقط الصفراء والحمراء على الخريطة.

حرك المؤشر فوق النقطة لمعرفة اسم المحطة.

ثم انقر لمعرفة أرصاد وتوقعات الطقس.

لتغيير الخارطة: اضغط على الأزرار الخضراء مع رمز الصليب الأسود للتكبير. على الزر الأخضر مع شرطة للتصغير، أو على الأسهم الخضراء للخرائط المجاورة.


METAR-TAF: